sensor_id;sensor_type;location;lat;lon;timestamp;P1;durP1;ratioP1;P2;durP2;ratioP2
36221;SDS011;22266;52.340;4.962;2023-07-31T00:01:34;2.25;;;1.25;;
36221;SDS011;22266;52.340;4.962;2023-07-31T00:04:01;1.00;;;1.00;;
36221;SDS011;22266;52.340;4.962;2023-07-31T00:06:27;2.00;;;2.00;;
36221;SDS011;22266;52.340;4.962;2023-07-31T00:08:54;2.50;;;2.50;;
36221;SDS011;22266;52.340;4.962;2023-07-31T00:11:20;0.00;;;0.00;;
36221;SDS011;22266;52.340;4.962;2023-07-31T00:13:47;3.00;;;1.00;;
36221;SDS011;22266;52.340;4.962;2023-07-31T00:16:13;3.75;;;2.25;;
36221;SDS011;22266;52.340;4.962;2023-07-31T00:18:40;1.00;;;1.00;;
36221;SDS011;22266;52.340;4.962;2023-07-31T00:21:06;2.00;;;1.25;;
36221;SDS011;22266;52.340;4.962;2023-07-31T00:23:33;1.75;;;0.75;;
36221;SDS011;22266;52.340;4.962;2023-07-31T00:26:00;1.75;;;1.75;;
36221;SDS011;22266;52.340;4.962;2023-07-31T00:28:26;1.00;;;1.00;;
36221;SDS011;22266;52.340;4.962;2023-07-31T00:30:55;2.25;;;2.25;;
36221;SDS011;22266;52.340;4.962;2023-07-31T00:33:24;2.25;;;1.50;;
36221;SDS011;22266;52.340;4.962;2023-07-31T00:35:51;2.50;;;1.50;;
36221;SDS011;22266;52.340;4.962;2023-07-31T00:38:17;2.00;;;1.00;;
36221;SDS011;22266;52.340;4.962;2023-07-31T00:40:44;1.00;;;1.00;;
36221;SDS011;22266;52.340;4.962;2023-07-31T00:43:10;2.25;;;1.00;;
36221;SDS011;22266;52.340;4.962;2023-07-31T00:45:37;1.00;;;1.00;;
36221;SDS011;22266;52.340;4.962;2023-07-31T00:48:04;1.00;;;1.00;;
36221;SDS011;22266;52.340;4.962;2023-07-31T00:50:34;5.00;;;3.00;;
36221;SDS011;22266;52.340;4.962;2023-07-31T00:53:01;2.25;;;1.75;;
36221;SDS011;22266;52.340;4.962;2023-07-31T00:55:28;5.00;;;0.00;;
36221;SDS011;22266;52.340;4.962;2023-07-31T00:57:56;4.25;;;2.75;;
36221;SDS011;22266;52.340;4.962;2023-07-31T01:00:22;3.50;;;2.00;;
36221;SDS011;22266;52.340;4.962;2023-07-31T01:02:49;3.50;;;3.00;;
36221;SDS011;22266;52.340;4.962;2023-07-31T01:05:28;1.00;;;1.00;;
36221;SDS011;22266;52.340;4.962;2023-07-31T01:08:04;2.50;;;2.50;;
36221;SDS011;22266;52.340;4.962;2023-07-31T01:11:01;4.00;;;2.25;;
36221;SDS011;22266;52.340;4.962;2023-07-31T01:13:34;3.00;;;3.00;;
36221;SDS011;22266;52.340;4.962;2023-07-31T01:16:01;3.00;;;3.00;;
36221;SDS011;22266;52.340;4.962;2023-07-31T01:18:28;2.50;;;2.25;;
36221;SDS011;22266;52.340;4.962;2023-07-31T01:20:57;2.75;;;2.50;;
36221;SDS011;22266;52.340;4.962;2023-07-31T01:23:51;3.50;;;2.75;;
36221;SDS011;22266;52.340;4.962;2023-07-31T01:26:30;4.00;;;3.00;;
36221;SDS011;22266;52.340;4.962;2023-07-31T01:31:36;4.50;;;4.50;;
36221;SDS011;22266;52.340;4.962;2023-07-31T01:34:05;3.25;;;3.25;;
36221;SDS011;22266;52.340;4.962;2023-07-31T01:36:35;2.75;;;2.00;;
36221;SDS011;22266;52.340;4.962;2023-07-31T01:39:02;7.00;;;3.00;;
36221;SDS011;22266;52.340;4.962;2023-07-31T01:41:29;6.00;;;4.50;;
36221;SDS011;22266;52.340;4.962;2023-07-31T01:43:56;10.25;;;7.50;;
36221;SDS011;22266;52.340;4.962;2023-07-31T01:46:23;4.00;;;4.00;;
36221;SDS011;22266;52.340;4.962;2023-07-31T01:48:50;4.75;;;3.50;;
36221;SDS011;22266;52.340;4.962;2023-07-31T01:51:16;3.25;;;2.50;;
36221;SDS011;22266;52.340;4.962;2023-07-31T01:53:43;3.75;;;3.75;;
36221;SDS011;22266;52.340;4.962;2023-07-31T01:56:09;2.75;;;2.75;;
36221;SDS011;22266;52.340;4.962;2023-07-31T01:58:36;6.00;;;4.25;;
36221;SDS011;22266;52.340;4.962;2023-07-31T02:01:02;4.00;;;3.00;;
36221;SDS011;22266;52.340;4.962;2023-07-31T02:03:29;6.00;;;6.00;;
36221;SDS011;22266;52.340;4.962;2023-07-31T02:05:55;6.25;;;5.00;;
36221;SDS011;22266;52.340;4.962;2023-07-31T02:08:24;7.00;;;5.50;;
36221;SDS011;22266;52.340;4.962;2023-07-31T02:10:51;6.50;;;4.75;;
36221;SDS011;22266;52.340;4.962;2023-07-31T02:13:18;6.00;;;5.50;;
36221;SDS011;22266;52.340;4.962;2023-07-31T02:15:45;7.75;;;4.25;;
36221;SDS011;22266;52.340;4.962;2023-07-31T02:18:11;7.00;;;3.75;;
36221;SDS011;22266;52.340;4.962;2023-07-31T02:20:38;8.25;;;4.50;;
36221;SDS011;22266;52.340;4.962;2023-07-31T02:23:04;10.00;;;6.00;;
36221;SDS011;22266;52.340;4.962;2023-07-31T02:25:31;5.50;;;5.50;;
36221;SDS011;22266;52.340;4.962;2023-07-31T02:27:57;7.25;;;6.75;;
36221;SDS011;22266;52.340;4.962;2023-07-31T02:30:24;9.33;;;8.00;;
36221;SDS011;22266;52.340;4.962;2023-07-31T02:32:51;6.33;;;5.33;;
36221;SDS011;22266;52.340;4.962;2023-07-31T02:35:17;7.75;;;6.00;;
36221;SDS011;22266;52.340;4.962;2023-07-31T02:37:45;6.25;;;6.00;;
36221;SDS011;22266;52.340;4.962;2023-07-31T02:40:12;5.50;;;5.00;;
36221;SDS011;22266;52.340;4.962;2023-07-31T02:42:38;5.00;;;4.00;;
36221;SDS011;22266;52.340;4.962;2023-07-31T02:45:05;9.33;;;7.67;;
36221;SDS011;22266;52.340;4.962;2023-07-31T02:47:32;7.33;;;6.00;;
36221;SDS011;22266;52.340;4.962;2023-07-31T02:49:59;10.33;;;8.00;;
36221;SDS011;22266;52.340;4.962;2023-07-31T02:55:15;8.00;;;6.00;;
36221;SDS011;22266;52.340;4.962;2023-07-31T02:57:41;10.67;;;9.00;;
36221;SDS011;22266;52.340;4.962;2023-07-31T03:00:08;7.00;;;6.00;;
36221;SDS011;22266;52.340;4.962;2023-07-31T03:02:35;7.33;;;7.33;;
36221;SDS011;22266;52.340;4.962;2023-07-31T03:05:02;5.00;;;5.00;;
36221;SDS011;22266;52.340;4.962;2023-07-31T03:07:29;6.33;;;5.00;;
36221;SDS011;22266;52.340;4.962;2023-07-31T03:09:56;6.00;;;5.25;;
36221;SDS011;22266;52.340;4.962;2023-07-31T03:12:23;7.25;;;5.75;;
36221;SDS011;22266;52.340;4.962;2023-07-31T03:14:49;8.67;;;7.00;;
36221;SDS011;22266;52.340;4.962;2023-07-31T03:17:16;5.75;;;5.50;;
36221;SDS011;22266;52.340;4.962;2023-07-31T03:19:42;6.00;;;4.00;;
36221;SDS011;22266;52.340;4.962;2023-07-31T03:22:08;5.00;;;5.00;;
36221;SDS011;22266;52.340;4.962;2023-07-31T03:24:35;4.75;;;4.50;;
36221;SDS011;22266;52.340;4.962;2023-07-31T03:27:01;8.00;;;5.00;;
36221;SDS011;22266;52.340;4.962;2023-07-31T03:29:28;6.67;;;5.00;;
36221;SDS011;22266;52.340;4.962;2023-07-31T03:31:54;11.00;;;8.33;;
36221;SDS011;22266;52.340;4.962;2023-07-31T03:34:21;5.67;;;5.67;;
36221;SDS011;22266;52.340;4.962;2023-07-31T03:36:48;5.50;;;5.50;;
36221;SDS011;22266;52.340;4.962;2023-07-31T03:39:14;5.25;;;4.00;;
36221;SDS011;22266;52.340;4.962;2023-07-31T03:41:41;7.00;;;5.33;;
36221;SDS011;22266;52.340;4.962;2023-07-31T03:44:07;3.33;;;3.33;;
36221;SDS011;22266;52.340;4.962;2023-07-31T03:46:34;9.67;;;8.33;;
36221;SDS011;22266;52.340;4.962;2023-07-31T03:49:02;10.00;;;7.00;;
36221;SDS011;22266;52.340;4.962;2023-07-31T03:51:29;6.00;;;6.00;;
36221;SDS011;22266;52.340;4.962;2023-07-31T03:53:56;5.33;;;5.33;;
36221;SDS011;22266;52.340;4.962;2023-07-31T03:56:22;6.00;;;6.00;;
36221;SDS011;22266;52.340;4.962;2023-07-31T03:58:49;7.00;;;7.00;;
36221;SDS011;22266;52.340;4.962;2023-07-31T04:01:15;5.67;;;5.33;;
36221;SDS011;22266;52.340;4.962;2023-07-31T04:03:42;9.50;;;8.00;;
36221;SDS011;22266;52.340;4.962;2023-07-31T04:06:09;7.00;;;6.67;;
36221;SDS011;22266;52.340;4.962;2023-07-31T04:08:36;7.75;;;7.75;;
36221;SDS011;22266;52.340;4.962;2023-07-31T04:11:03;5.75;;;5.25;;
36221;SDS011;22266;52.340;4.962;2023-07-31T04:13:29;10.00;;;6.00;;
36221;SDS011;22266;52.340;4.962;2023-07-31T04:15:56;8.25;;;5.25;;
36221;SDS011;22266;52.340;4.962;2023-07-31T04:18:24;6.67;;;4.67;;
36221;SDS011;22266;52.340;4.962;2023-07-31T04:20:51;6.33;;;6.33;;
36221;SDS011;22266;52.340;4.962;2023-07-31T04:23:18;7.00;;;7.00;;
36221;SDS011;22266;52.340;4.962;2023-07-31T04:25:44;6.33;;;6.33;;
36221;SDS011;22266;52.340;4.962;2023-07-31T04:28:11;9.67;;;6.00;;
36221;SDS011;22266;52.340;4.962;2023-07-31T04:30:38;6.00;;;5.33;;
36221;SDS011;22266;52.340;4.962;2023-07-31T04:33:05;7.00;;;5.25;;
36221;SDS011;22266;52.340;4.962;2023-07-31T04:35:31;8.25;;;6.75;;
36221;SDS011;22266;52.340;4.962;2023-07-31T04:37:58;6.00;;;6.00;;
36221;SDS011;22266;52.340;4.962;2023-07-31T04:40:24;6.75;;;6.75;;
36221;SDS011;22266;52.340;4.962;2023-07-31T04:42:51;8.00;;;7.25;;
36221;SDS011;22266;52.340;4.962;2023-07-31T04:45:18;6.50;;;6.00;;
36221;SDS011;22266;52.340;4.962;2023-07-31T04:47:44;6.33;;;6.00;;
36221;SDS011;22266;52.340;4.962;2023-07-31T04:50:11;6.25;;;6.25;;
36221;SDS011;22266;52.340;4.962;2023-07-31T04:52:37;3.00;;;3.00;;
36221;SDS011;22266;52.340;4.962;2023-07-31T04:55:04;5.00;;;5.00;;
36221;SDS011;22266;52.340;4.962;2023-07-31T04:57:30;6.75;;;5.00;;
36221;SDS011;22266;52.340;4.962;2023-07-31T04:59:57;3.00;;;3.00;;
36221;SDS011;22266;52.340;4.962;2023-07-31T05:02:23;3.25;;;2.75;;
36221;SDS011;22266;52.340;4.962;2023-07-31T05:04:50;5.25;;;3.50;;
36221;SDS011;22266;52.340;4.962;2023-07-31T05:07:17;3.25;;;2.00;;
36221;SDS011;22266;52.340;4.962;2023-07-31T05:09:44;4.00;;;3.00;;
36221;SDS011;22266;52.340;4.962;2023-07-31T05:12:10;2.25;;;2.25;;
36221;SDS011;22266;52.340;4.962;2023-07-31T05:14:36;3.00;;;3.00;;
36221;SDS011;22266;52.340;4.962;2023-07-31T05:17:03;2.25;;;2.00;;
36221;SDS011;22266;52.340;4.962;2023-07-31T05:19:30;3.00;;;3.00;;
36221;SDS011;22266;52.340;4.962;2023-07-31T05:21:56;3.00;;;2.75;;
36221;SDS011;22266;52.340;4.962;2023-07-31T05:24:23;3.75;;;3.25;;
36221;SDS011;22266;52.340;4.962;2023-07-31T05:26:49;2.00;;;2.00;;
36221;SDS011;22266;52.340;4.962;2023-07-31T05:29:16;2.00;;;2.00;;
36221;SDS011;22266;52.340;4.962;2023-07-31T05:31:42;1.25;;;1.25;;
36221;SDS011;22266;52.340;4.962;2023-07-31T05:34:09;1.00;;;1.00;;
36221;SDS011;22266;52.340;4.962;2023-07-31T05:36:36;1.00;;;1.00;;
36221;SDS011;22266;52.340;4.962;2023-07-31T05:39:03;1.75;;;1.00;;
36221;SDS011;22266;52.340;4.962;2023-07-31T05:41:33;2.00;;;2.00;;
36221;SDS011;22266;52.340;4.962;2023-07-31T05:43:59;2.00;;;2.00;;
36221;SDS011;22266;52.340;4.962;2023-07-31T05:46:26;0.75;;;0.75;;
36221;SDS011;22266;52.340;4.962;2023-07-31T05:48:52;2.75;;;1.75;;
36221;SDS011;22266;52.340;4.962;2023-07-31T05:51:19;3.50;;;1.00;;
36221;SDS011;22266;52.340;4.962;2023-07-31T05:53:45;0.75;;;0.75;;
36221;SDS011;22266;52.340;4.962;2023-07-31T05:56:12;2.75;;;1.00;;
36221;SDS011;22266;52.340;4.962;2023-07-31T05:58:38;2.25;;;2.25;;
36221;SDS011;22266;52.340;4.962;2023-07-31T06:01:05;1.25;;;1.25;;
36221;SDS011;22266;52.340;4.962;2023-07-31T06:03:31;2.75;;;2.75;;
36221;SDS011;22266;52.340;4.962;2023-07-31T06:05:58;1.00;;;1.00;;
36221;SDS011;22266;52.340;4.962;2023-07-31T06:08:24;1.00;;;1.00;;
36221;SDS011;22266;52.340;4.962;2023-07-31T06:10:51;1.75;;;1.00;;
36221;SDS011;22266;52.340;4.962;2023-07-31T06:13:17;0.25;;;0.25;;
36221;SDS011;22266;52.340;4.962;2023-07-31T06:15:44;2.00;;;2.00;;
36221;SDS011;22266;52.340;4.962;2023-07-31T06:18:10;1.00;;;1.00;;
36221;SDS011;22266;52.340;4.962;2023-07-31T06:20:37;0.00;;;0.00;;
36221;SDS011;22266;52.340;4.962;2023-07-31T06:23:06;1.00;;;1.00;;
36221;SDS011;22266;52.340;4.962;2023-07-31T06:25:33;1.25;;;1.25;;
36221;SDS011;22266;52.340;4.962;2023-07-31T06:27:59;1.75;;;1.75;;
36221;SDS011;22266;52.340;4.962;2023-07-31T06:30:26;0.75;;;0.75;;
36221;SDS011;22266;52.340;4.962;2023-07-31T06:32:52;2.00;;;2.00;;
36221;SDS011;22266;52.340;4.962;2023-07-31T06:35:19;0.75;;;0.00;;
36221;SDS011;22266;52.340;4.962;2023-07-31T06:37:45;1.00;;;1.00;;
36221;SDS011;22266;52.340;4.962;2023-07-31T06:40:12;1.00;;;1.00;;
36221;SDS011;22266;52.340;4.962;2023-07-31T06:42:39;0.00;;;0.00;;
36221;SDS011;22266;52.340;4.962;2023-07-31T06:45:05;0.00;;;0.00;;
36221;SDS011;22266;52.340;4.962;2023-07-31T06:47:32;1.00;;;0.50;;
36221;SDS011;22266;52.340;4.962;2023-07-31T06:49:59;1.00;;;1.00;;
36221;SDS011;22266;52.340;4.962;2023-07-31T06:52:26;0.75;;;0.75;;
36221;SDS011;22266;52.340;4.962;2023-07-31T06:55:02;0.00;;;0.00;;
36221;SDS011;22266;52.340;4.962;2023-07-31T06:57:43;0.25;;;0.25;;
36221;SDS011;22266;52.340;4.962;2023-07-31T07:00:10;0.00;;;0.00;;
36221;SDS011;22266;52.340;4.962;2023-07-31T07:02:37;0.00;;;0.00;;
36221;SDS011;22266;52.340;4.962;2023-07-31T07:05:04;0.00;;;0.00;;
36221;SDS011;22266;52.340;4.962;2023-07-31T07:07:30;0.00;;;0.00;;
36221;SDS011;22266;52.340;4.962;2023-07-31T07:09:57;0.00;;;0.00;;
36221;SDS011;22266;52.340;4.962;2023-07-31T07:12:26;0.00;;;0.00;;
36221;SDS011;22266;52.340;4.962;2023-07-31T07:14:55;0.00;;;0.00;;
36221;SDS011;22266;52.340;4.962;2023-07-31T07:17:22;0.00;;;0.00;;
36221;SDS011;22266;52.340;4.962;2023-07-31T07:19:48;0.00;;;0.00;;
36221;SDS011;22266;52.340;4.962;2023-07-31T07:22:15;0.00;;;0.00;;
36221;SDS011;22266;52.340;4.962;2023-07-31T07:24:41;0.00;;;0.00;;
36221;SDS011;22266;52.340;4.962;2023-07-31T07:27:08;0.00;;;0.00;;
36221;SDS011;22266;52.340;4.962;2023-07-31T07:29:34;0.00;;;0.00;;
36221;SDS011;22266;52.340;4.962;2023-07-31T07:32:01;0.00;;;0.00;;
36221;SDS011;22266;52.340;4.962;2023-07-31T07:34:28;0.00;;;0.00;;
36221;SDS011;22266;52.340;4.962;2023-07-31T07:36:55;0.00;;;0.00;;
36221;SDS011;22266;52.340;4.962;2023-07-31T07:39:21;0.00;;;0.00;;
36221;SDS011;22266;52.340;4.962;2023-07-31T07:41:48;0.75;;;0.75;;
36221;SDS011;22266;52.340;4.962;2023-07-31T07:44:14;0.00;;;0.00;;
36221;SDS011;22266;52.340;4.962;2023-07-31T07:46:41;0.00;;;0.00;;
36221;SDS011;22266;52.340;4.962;2023-07-31T07:49:08;0.00;;;0.00;;
36221;SDS011;22266;52.340;4.962;2023-07-31T07:51:34;0.00;;;0.00;;
36221;SDS011;22266;52.340;4.962;2023-07-31T07:54:01;0.00;;;0.00;;
36221;SDS011;22266;52.340;4.962;2023-07-31T07:56:27;0.00;;;0.00;;
36221;SDS011;22266;52.340;4.962;2023-07-31T07:58:54;0.00;;;0.00;;
36221;SDS011;22266;52.340;4.962;2023-07-31T08:01:21;0.00;;;0.00;;
36221;SDS011;22266;52.340;4.962;2023-07-31T08:03:47;0.00;;;0.00;;
36221;SDS011;22266;52.340;4.962;2023-07-31T08:06:14;0.00;;;0.00;;
36221;SDS011;22266;52.340;4.962;2023-07-31T08:08:41;0.00;;;0.00;;
36221;SDS011;22266;52.340;4.962;2023-07-31T08:11:07;0.00;;;0.00;;
36221;SDS011;22266;52.340;4.962;2023-07-31T08:13:33;0.00;;;0.00;;
36221;SDS011;22266;52.340;4.962;2023-07-31T08:16:00;0.00;;;0.00;;
36221;SDS011;22266;52.340;4.962;2023-07-31T08:18:26;0.00;;;0.00;;
36221;SDS011;22266;52.340;4.962;2023-07-31T08:20:53;0.00;;;0.00;;
36221;SDS011;22266;52.340;4.962;2023-07-31T08:23:20;0.00;;;0.00;;
36221;SDS011;22266;52.340;4.962;2023-07-31T08:25:46;0.00;;;0.00;;
36221;SDS011;22266;52.340;4.962;2023-07-31T08:28:13;0.00;;;0.00;;
36221;SDS011;22266;52.340;4.962;2023-07-31T08:30:39;0.00;;;0.00;;
36221;SDS011;22266;52.340;4.962;2023-07-31T08:33:06;0.00;;;0.00;;
36221;SDS011;22266;52.340;4.962;2023-07-31T08:35:33;0.00;;;0.00;;
36221;SDS011;22266;52.340;4.962;2023-07-31T08:37:59;0.00;;;0.00;;
36221;SDS011;22266;52.340;4.962;2023-07-31T08:40:26;0.00;;;0.00;;
36221;SDS011;22266;52.340;4.962;2023-07-31T08:42:53;1.00;;;0.00;;
36221;SDS011;22266;52.340;4.962;2023-07-31T08:45:22;1.00;;;0.00;;
36221;SDS011;22266;52.340;4.962;2023-07-31T08:47:50;0.00;;;0.00;;
36221;SDS011;22266;52.340;4.962;2023-07-31T08:50:19;0.00;;;0.00;;
36221;SDS011;22266;52.340;4.962;2023-07-31T08:52:47;0.00;;;0.00;;
36221;SDS011;22266;52.340;4.962;2023-07-31T08:55:15;0.00;;;0.00;;
36221;SDS011;22266;52.340;4.962;2023-07-31T08:57:42;0.00;;;0.00;;
36221;SDS011;22266;52.340;4.962;2023-07-31T09:00:10;0.00;;;0.00;;
36221;SDS011;22266;52.340;4.962;2023-07-31T09:02:38;0.50;;;0.50;;
36221;SDS011;22266;52.340;4.962;2023-07-31T09:05:11;0.00;;;0.00;;
36221;SDS011;22266;52.340;4.962;2023-07-31T09:07:38;0.00;;;0.00;;
36221;SDS011;22266;52.340;4.962;2023-07-31T09:10:06;0.75;;;0.75;;
36221;SDS011;22266;52.340;4.962;2023-07-31T09:12:33;0.25;;;0.25;;
36221;SDS011;22266;52.340;4.962;2023-07-31T09:15:00;0.00;;;0.00;;
36221;SDS011;22266;52.340;4.962;2023-07-31T09:19:57;0.00;;;0.00;;
36221;SDS011;22266;52.340;4.962;2023-07-31T09:22:34;1.00;;;0.00;;
36221;SDS011;22266;52.340;4.962;2023-07-31T09:25:45;1.00;;;1.00;;
36221;SDS011;22266;52.340;4.962;2023-07-31T09:28:02;1.00;;;1.00;;
36221;SDS011;22266;52.340;4.962;2023-07-31T09:30:30;1.00;;;1.00;;
36221;SDS011;22266;52.340;4.962;2023-07-31T09:33:01;2.00;;;2.00;;
36221;SDS011;22266;52.340;4.962;2023-07-31T09:35:30;1.00;;;1.00;;
36221;SDS011;22266;52.340;4.962;2023-07-31T09:37:59;2.00;;;2.00;;
36221;SDS011;22266;52.340;4.962;2023-07-31T09:40:29;1.00;;;1.00;;
36221;SDS011;22266;52.340;4.962;2023-07-31T09:42:58;1.75;;;1.00;;
36221;SDS011;22266;52.340;4.962;2023-07-31T09:45:26;1.25;;;0.00;;
36221;SDS011;22266;52.340;4.962;2023-07-31T09:48:10;0.00;;;0.00;;
36221;SDS011;22266;52.340;4.962;2023-07-31T09:50:39;2.00;;;1.00;;
36221;SDS011;22266;52.340;4.962;2023-07-31T09:53:07;2.50;;;1.25;;
36221;SDS011;22266;52.340;4.962;2023-07-31T09:55:35;3.00;;;1.25;;
36221;SDS011;22266;52.340;4.962;2023-07-31T09:58:03;0.25;;;0.25;;
36221;SDS011;22266;52.340;4.962;2023-07-31T10:00:31;0.25;;;0.25;;
36221;SDS011;22266;52.340;4.962;2023-07-31T10:02:59;3.00;;;1.00;;
36221;SDS011;22266;52.340;4.962;2023-07-31T10:05:31;1.25;;;0.75;;
36221;SDS011;22266;52.340;4.962;2023-07-31T10:08:01;1.25;;;1.00;;
36221;SDS011;22266;52.340;4.962;2023-07-31T10:10:28;2.50;;;2.00;;
36221;SDS011;22266;52.340;4.962;2023-07-31T10:12:55;4.00;;;2.00;;
36221;SDS011;22266;52.340;4.962;2023-07-31T10:15:22;3.00;;;1.00;;
36221;SDS011;22266;52.340;4.962;2023-07-31T10:17:51;1.00;;;1.00;;
36221;SDS011;22266;52.340;4.962;2023-07-31T10:20:18;4.00;;;2.00;;
36221;SDS011;22266;52.340;4.962;2023-07-31T10:22:45;2.25;;;1.00;;
36221;SDS011;22266;52.340;4.962;2023-07-31T10:25:12;1.25;;;1.25;;
36221;SDS011;22266;52.340;4.962;2023-07-31T10:27:39;2.00;;;2.00;;
36221;SDS011;22266;52.340;4.962;2023-07-31T10:30:07;0.75;;;0.75;;
36221;SDS011;22266;52.340;4.962;2023-07-31T10:32:37;1.25;;;1.25;;
36221;SDS011;22266;52.340;4.962;2023-07-31T10:35:07;1.00;;;1.00;;
36221;SDS011;22266;52.340;4.962;2023-07-31T10:37:36;2.75;;;1.50;;
36221;SDS011;22266;52.340;4.962;2023-07-31T10:40:11;1.00;;;1.00;;
36221;SDS011;22266;52.340;4.962;2023-07-31T10:42:49;1.25;;;1.25;;
36221;SDS011;22266;52.340;4.962;2023-07-31T10:45:26;1.00;;;1.00;;
36221;SDS011;22266;52.340;4.962;2023-07-31T10:47:58;1.25;;;1.25;;
36221;SDS011;22266;52.340;4.962;2023-07-31T10:50:27;1.00;;;1.00;;
36221;SDS011;22266;52.340;4.962;2023-07-31T10:52:56;1.75;;;1.75;;
36221;SDS011;22266;52.340;4.962;2023-07-31T10:58:05;0.00;;;0.00;;
36221;SDS011;22266;52.340;4.962;2023-07-31T11:00:34;3.75;;;2.00;;
36221;SDS011;22266;52.340;4.962;2023-07-31T11:03:04;3.75;;;1.00;;
36221;SDS011;22266;52.340;4.962;2023-07-31T11:05:43;2.00;;;2.00;;
36221;SDS011;22266;52.340;4.962;2023-07-31T11:10:49;2.50;;;2.00;;
36221;SDS011;22266;52.340;4.962;2023-07-31T11:16:07;2.00;;;2.00;;
36221;SDS011;22266;52.340;4.962;2023-07-31T11:18:34;1.00;;;1.00;;
36221;SDS011;22266;52.340;4.962;2023-07-31T11:21:01;2.00;;;2.00;;
36221;SDS011;22266;52.340;4.962;2023-07-31T11:23:27;1.25;;;1.25;;
36221;SDS011;22266;52.340;4.962;2023-07-31T11:25:54;2.75;;;1.50;;
36221;SDS011;22266;52.340;4.962;2023-07-31T11:28:25;0.25;;;0.25;;
36221;SDS011;22266;52.340;4.962;2023-07-31T11:30:52;3.00;;;2.00;;
36221;SDS011;22266;52.340;4.962;2023-07-31T11:33:22;2.00;;;2.00;;
36221;SDS011;22266;52.340;4.962;2023-07-31T11:35:48;2.75;;;2.00;;
36221;SDS011;22266;52.340;4.962;2023-07-31T11:38:22;2.00;;;1.00;;
36221;SDS011;22266;52.340;4.962;2023-07-31T11:40:49;3.75;;;2.00;;
36221;SDS011;22266;52.340;4.962;2023-07-31T11:43:17;2.75;;;2.50;;
36221;SDS011;22266;52.340;4.962;2023-07-31T11:46:02;2.25;;;2.00;;
36221;SDS011;22266;52.340;4.962;2023-07-31T11:48:33;2.00;;;2.00;;
36221;SDS011;22266;52.340;4.962;2023-07-31T11:51:06;2.75;;;2.75;;
36221;SDS011;22266;52.340;4.962;2023-07-31T11:53:38;2.00;;;1.25;;
36221;SDS011;22266;52.340;4.962;2023-07-31T11:56:09;1.75;;;1.25;;
36221;SDS011;22266;52.340;4.962;2023-07-31T11:58:38;3.00;;;1.50;;
36221;SDS011;22266;52.340;4.962;2023-07-31T12:01:05;1.00;;;1.00;;
36221;SDS011;22266;52.340;4.962;2023-07-31T12:03:32;2.00;;;2.00;;
36221;SDS011;22266;52.340;4.962;2023-07-31T12:06:00;3.50;;;2.00;;
36221;SDS011;22266;52.340;4.962;2023-07-31T12:08:27;2.00;;;2.00;;
36221;SDS011;22266;52.340;4.962;2023-07-31T12:10:54;2.00;;;2.00;;
36221;SDS011;22266;52.340;4.962;2023-07-31T12:13:30;1.00;;;1.00;;
36221;SDS011;22266;52.340;4.962;2023-07-31T12:15:58;1.50;;;1.50;;
36221;SDS011;22266;52.340;4.962;2023-07-31T12:18:29;2.75;;;2.75;;
36221;SDS011;22266;52.340;4.962;2023-07-31T12:21:01;2.00;;;2.00;;
36221;SDS011;22266;52.340;4.962;2023-07-31T12:23:30;1.50;;;1.00;;
36221;SDS011;22266;52.340;4.962;2023-07-31T12:28:40;0.75;;;0.75;;
36221;SDS011;22266;52.340;4.962;2023-07-31T12:31:08;0.00;;;0.00;;
36221;SDS011;22266;52.340;4.962;2023-07-31T12:33:37;2.50;;;1.00;;
36221;SDS011;22266;52.340;4.962;2023-07-31T12:36:23;2.75;;;1.00;;
36221;SDS011;22266;52.340;4.962;2023-07-31T12:38:51;1.00;;;1.00;;
36221;SDS011;22266;52.340;4.962;2023-07-31T12:41:18;1.00;;;1.00;;
36221;SDS011;22266;52.340;4.962;2023-07-31T12:43:45;1.25;;;1.25;;
36221;SDS011;22266;52.340;4.962;2023-07-31T12:46:12;2.00;;;1.25;;
36221;SDS011;22266;52.340;4.962;2023-07-31T12:48:39;1.00;;;1.00;;
36221;SDS011;22266;52.340;4.962;2023-07-31T12:51:06;0.00;;;0.00;;
36221;SDS011;22266;52.340;4.962;2023-07-31T12:53:33;1.50;;;1.25;;
36221;SDS011;22266;52.340;4.962;2023-07-31T12:56:00;2.00;;;2.00;;
36221;SDS011;22266;52.340;4.962;2023-07-31T12:58:28;1.75;;;1.75;;
36221;SDS011;22266;52.340;4.962;2023-07-31T13:00:54;2.00;;;1.00;;
36221;SDS011;22266;52.340;4.962;2023-07-31T13:03:21;1.00;;;1.00;;
36221;SDS011;22266;52.340;4.962;2023-07-31T13:05:47;4.00;;;1.00;;
36221;SDS011;22266;52.340;4.962;2023-07-31T13:08:14;0.50;;;0.50;;
36221;SDS011;22266;52.340;4.962;2023-07-31T13:10:42;0.25;;;0.25;;
36221;SDS011;22266;52.340;4.962;2023-07-31T13:13:09;1.00;;;1.00;;
36221;SDS011;22266;52.340;4.962;2023-07-31T13:15:36;1.00;;;1.00;;
36221;SDS011;22266;52.340;4.962;2023-07-31T13:18:02;1.50;;;1.50;;
36221;SDS011;22266;52.340;4.962;2023-07-31T13:20:29;1.00;;;1.00;;
36221;SDS011;22266;52.340;4.962;2023-07-31T13:22:56;2.00;;;1.00;;
36221;SDS011;22266;52.340;4.962;2023-07-31T13:25:22;1.00;;;0.50;;
36221;SDS011;22266;52.340;4.962;2023-07-31T13:27:49;3.00;;;1.00;;
36221;SDS011;22266;52.340;4.962;2023-07-31T13:30:15;0.25;;;0.25;;
36221;SDS011;22266;52.340;4.962;2023-07-31T13:32:42;1.50;;;1.50;;
36221;SDS011;22266;52.340;4.962;2023-07-31T13:35:08;2.25;;;1.75;;
36221;SDS011;22266;52.340;4.962;2023-07-31T13:37:37;1.00;;;1.00;;
36221;SDS011;22266;52.340;4.962;2023-07-31T13:40:03;1.00;;;1.00;;
36221;SDS011;22266;52.340;4.962;2023-07-31T13:42:31;2.00;;;1.25;;
36221;SDS011;22266;52.340;4.962;2023-07-31T13:44:58;1.00;;;1.00;;
36221;SDS011;22266;52.340;4.962;2023-07-31T13:47:25;0.50;;;0.50;;
36221;SDS011;22266;52.340;4.962;2023-07-31T13:49:51;1.25;;;1.00;;
36221;SDS011;22266;52.340;4.962;2023-07-31T13:52:18;1.00;;;1.00;;
36221;SDS011;22266;52.340;4.962;2023-07-31T13:54:44;0.00;;;0.00;;
36221;SDS011;22266;52.340;4.962;2023-07-31T13:57:11;1.00;;;0.00;;
36221;SDS011;22266;52.340;4.962;2023-07-31T13:59:37;1.75;;;0.00;;
36221;SDS011;22266;52.340;4.962;2023-07-31T14:02:04;0.00;;;0.00;;
36221;SDS011;22266;52.340;4.962;2023-07-31T14:04:30;0.00;;;0.00;;
36221;SDS011;22266;52.340;4.962;2023-07-31T14:06:57;0.00;;;0.00;;
36221;SDS011;22266;52.340;4.962;2023-07-31T14:09:23;0.00;;;0.00;;
36221;SDS011;22266;52.340;4.962;2023-07-31T14:11:50;0.00;;;0.00;;
36221;SDS011;22266;52.340;4.962;2023-07-31T14:14:16;0.00;;;0.00;;
36221;SDS011;22266;52.340;4.962;2023-07-31T14:16:44;0.00;;;0.00;;
36221;SDS011;22266;52.340;4.962;2023-07-31T14:19:11;1.50;;;0.75;;
36221;SDS011;22266;52.340;4.962;2023-07-31T14:21:38;0.25;;;0.25;;
36221;SDS011;22266;52.340;4.962;2023-07-31T14:24:04;0.00;;;0.00;;
36221;SDS011;22266;52.340;4.962;2023-07-31T14:26:31;0.00;;;0.00;;
36221;SDS011;22266;52.340;4.962;2023-07-31T14:28:57;2.50;;;1.00;;
36221;SDS011;22266;52.340;4.962;2023-07-31T14:31:24;1.25;;;1.00;;
36221;SDS011;22266;52.340;4.962;2023-07-31T14:33:50;0.50;;;0.00;;
36221;SDS011;22266;52.340;4.962;2023-07-31T14:36:17;1.00;;;1.00;;
36221;SDS011;22266;52.340;4.962;2023-07-31T14:38:43;2.00;;;1.00;;
36221;SDS011;22266;52.340;4.962;2023-07-31T14:41:10;1.00;;;1.00;;
36221;SDS011;22266;52.340;4.962;2023-07-31T14:43:36;1.00;;;1.00;;
36221;SDS011;22266;52.340;4.962;2023-07-31T14:46:03;0.25;;;0.00;;
36221;SDS011;22266;52.340;4.962;2023-07-31T14:48:29;2.50;;;1.00;;
36221;SDS011;22266;52.340;4.962;2023-07-31T14:50:56;1.00;;;1.00;;
36221;SDS011;22266;52.340;4.962;2023-07-31T14:53:22;1.00;;;1.00;;
36221;SDS011;22266;52.340;4.962;2023-07-31T14:55:49;1.00;;;1.00;;
36221;SDS011;22266;52.340;4.962;2023-07-31T14:58:15;0.00;;;0.00;;
36221;SDS011;22266;52.340;4.962;2023-07-31T15:00:43;1.00;;;1.00;;
36221;SDS011;22266;52.340;4.962;2023-07-31T15:03:10;2.00;;;1.00;;
36221;SDS011;22266;52.340;4.962;2023-07-31T15:05:37;1.00;;;1.00;;
36221;SDS011;22266;52.340;4.962;2023-07-31T15:08:03;1.00;;;1.00;;
36221;SDS011;22266;52.340;4.962;2023-07-31T15:10:30;0.50;;;0.50;;